sensor_id;sensor_type;location;lat;lon;timestamp;temperature;humidity
71291;DHT22;59073;51.994;4.448;2023-02-15T00:01:28;4.78;85.18
71291;DHT22;59073;51.994;4.448;2023-02-15T00:03:54;4.83;84.50
71291;DHT22;59073;51.994;4.448;2023-02-15T00:06:19;5.07;84.56
71291;DHT22;59073;51.994;4.448;2023-02-15T00:08:45;5.14;83.16
71291;DHT22;59073;51.994;4.448;2023-02-15T00:11:12;4.89;79.27
71291;DHT22;59073;51.994;4.448;2023-02-15T00:13:39;4.94;81.59
71291;DHT22;59073;51.994;4.448;2023-02-15T00:16:10;5.19;82.02
71291;DHT22;59073;51.994;4.448;2023-02-15T00:18:37;5.31;81.18
71291;DHT22;59073;51.994;4.448;2023-02-15T00:21:05;5.04;79.40
71291;DHT22;59073;51.994;4.448;2023-02-15T00:23:31;5.29;80.35
71291;DHT22;59073;51.994;4.448;2023-02-15T00:26:04;5.39;80.42
71291;DHT22;59073;51.994;4.448;2023-02-15T00:28:30;5.15;81.02
71291;DHT22;59073;51.994;4.448;2023-02-15T00:31:02;5.14;81.45
71291;DHT22;59073;51.994;4.448;2023-02-15T00:33:28;5.12;81.36
71291;DHT22;59073;51.994;4.448;2023-02-15T00:36:00;5.15;81.37
71291;DHT22;59073;51.994;4.448;2023-02-15T00:38:27;5.11;80.85
71291;DHT22;59073;51.994;4.448;2023-02-15T00:41:01;5.14;82.30
71291;DHT22;59073;51.994;4.448;2023-02-15T00:43:29;5.28;82.79
71291;DHT22;59073;51.994;4.448;2023-02-15T00:45:55;5.33;82.66
71291;DHT22;59073;51.994;4.448;2023-02-15T00:48:21;4.95;79.69
71291;DHT22;59073;51.994;4.448;2023-02-15T00:50:50;4.84;80.80
71291;DHT22;59073;51.994;4.448;2023-02-15T00:53:15;4.94;81.91
71291;DHT22;59073;51.994;4.448;2023-02-15T00:55:41;4.52;82.69
71291;DHT22;59073;51.994;4.448;2023-02-15T00:58:08;4.47;82.85
71291;DHT22;59073;51.994;4.448;2023-02-15T01:00:34;4.67;82.55
71291;DHT22;59073;51.994;4.448;2023-02-15T01:02:59;4.77;82.11
71291;DHT22;59073;51.994;4.448;2023-02-15T01:05:25;4.87;81.86
71291;DHT22;59073;51.994;4.448;2023-02-15T01:07:50;4.94;81.44
71291;DHT22;59073;51.994;4.448;2023-02-15T01:10:15;5.01;81.21
71291;DHT22;59073;51.994;4.448;2023-02-15T01:12:41;4.95;80.76
71291;DHT22;59073;51.994;4.448;2023-02-15T01:15:07;4.88;81.14
71291;DHT22;59073;51.994;4.448;2023-02-15T01:17:32;4.60;81.90
71291;DHT22;59073;51.994;4.448;2023-02-15T01:19:57;4.36;82.90
71291;DHT22;59073;51.994;4.448;2023-02-15T01:22:24;4.37;83.46
71291;DHT22;59073;51.994;4.448;2023-02-15T01:24:50;4.47;84.63
71291;DHT22;59073;51.994;4.448;2023-02-15T01:27:15;4.75;83.70
71291;DHT22;59073;51.994;4.448;2023-02-15T01:29:41;4.92;83.06
71291;DHT22;59073;51.994;4.448;2023-02-15T01:32:06;5.04;82.00
71291;DHT22;59073;51.994;4.448;2023-02-15T01:34:32;5.08;81.54
71291;DHT22;59073;51.994;4.448;2023-02-15T01:36:57;5.14;81.64
71291;DHT22;59073;51.994;4.448;2023-02-15T01:39:23;5.19;81.64
71291;DHT22;59073;51.994;4.448;2023-02-15T01:41:48;5.19;80.64
71291;DHT22;59073;51.994;4.448;2023-02-15T01:47:39;4.92;81.90
71291;DHT22;59073;51.994;4.448;2023-02-15T01:52:55;5.07;80.56
71291;DHT22;59073;51.994;4.448;2023-02-15T01:55:24;4.94;80.22
71291;DHT22;59073;51.994;4.448;2023-02-15T01:57:50;5.01;80.34
71291;DHT22;59073;51.994;4.448;2023-02-15T02:00:17;4.98;79.77
71291;DHT22;59073;51.994;4.448;2023-02-15T02:02:47;4.85;79.02
71291;DHT22;59073;51.994;4.448;2023-02-15T02:05:14;4.77;79.14
71291;DHT22;59073;51.994;4.448;2023-02-15T02:07:44;4.61;76.54
71291;DHT22;59073;51.994;4.448;2023-02-15T02:10:15;4.52;77.98
71291;DHT22;59073;51.994;4.448;2023-02-15T02:12:43;4.28;76.39
71291;DHT22;59073;51.994;4.448;2023-02-15T02:15:09;4.09;79.55
71291;DHT22;59073;51.994;4.448;2023-02-15T02:18:03;4.26;80.68
71291;DHT22;59073;51.994;4.448;2023-02-15T02:26:28;4.84;81.83
71291;DHT22;59073;51.994;4.448;2023-02-15T02:35:08;4.85;79.76
71291;DHT22;59073;51.994;4.448;2023-02-15T02:43:01;4.46;80.49
71291;DHT22;59073;51.994;4.448;2023-02-15T02:45:39;4.36;81.06
71291;DHT22;59073;51.994;4.448;2023-02-15T02:48:18;4.33;81.42
71291;DHT22;59073;51.994;4.448;2023-02-15T02:50:44;4.34;81.60
71291;DHT22;59073;51.994;4.448;2023-02-15T02:53:10;4.42;81.59
71291;DHT22;59073;51.994;4.448;2023-02-15T02:55:56;4.40;81.44
71291;DHT22;59073;51.994;4.448;2023-02-15T02:58:32;4.28;81.48
71291;DHT22;59073;51.994;4.448;2023-02-15T03:01:09;4.06;82.27
71291;DHT22;59073;51.994;4.448;2023-02-15T03:03:47;4.29;82.27
71291;DHT22;59073;51.994;4.448;2023-02-15T03:06:19;4.47;82.02
71291;DHT22;59073;51.994;4.448;2023-02-15T03:08:51;4.49;81.32
71291;DHT22;59073;51.994;4.448;2023-02-15T03:11:19;4.46;81.11
71291;DHT22;59073;51.994;4.448;2023-02-15T03:13:48;4.46;80.42
71291;DHT22;59073;51.994;4.448;2023-02-15T03:16:18;4.07;79.86
71291;DHT22;59073;51.994;4.448;2023-02-15T03:18:55;3.54;82.04
71291;DHT22;59073;51.994;4.448;2023-02-15T03:21:47;3.34;83.68
71291;DHT22;59073;51.994;4.448;2023-02-15T03:24:28;3.38;83.94
71291;DHT22;59073;51.994;4.448;2023-02-15T03:26:56;3.61;83.70
71291;DHT22;59073;51.994;4.448;2023-02-15T03:29:26;3.84;83.18
71291;DHT22;59073;51.994;4.448;2023-02-15T03:32:00;3.95;82.21
71291;DHT22;59073;51.994;4.448;2023-02-15T03:34:29;3.89;81.97
71291;DHT22;59073;51.994;4.448;2023-02-15T03:37:15;3.93;81.67
71291;DHT22;59073;51.994;4.448;2023-02-15T03:43:14;4.07;82.10
71291;DHT22;59073;51.994;4.448;2023-02-15T03:45:47;4.13;82.00
71291;DHT22;59073;51.994;4.448;2023-02-15T03:48:30;4.16;81.99
71291;DHT22;59073;51.994;4.448;2023-02-15T03:51:02;4.12;81.06
71291;DHT22;59073;51.994;4.448;2023-02-15T03:53:49;4.06;80.71
71291;DHT22;59073;51.994;4.448;2023-02-15T03:56:15;3.89;81.28
71291;DHT22;59073;51.994;4.448;2023-02-15T03:58:40;3.79;81.20
71291;DHT22;59073;51.994;4.448;2023-02-15T04:01:44;3.24;82.80
71291;DHT22;59073;51.994;4.448;2023-02-15T04:04:36;3.13;84.15
71291;DHT22;59073;51.994;4.448;2023-02-15T04:07:05;3.23;84.05
71291;DHT22;59073;51.994;4.448;2023-02-15T04:09:31;3.00;84.68
71291;DHT22;59073;51.994;4.448;2023-02-15T04:12:14;2.95;86.18
71291;DHT22;59073;51.994;4.448;2023-02-15T04:14:40;3.09;86.98
71291;DHT22;59073;51.994;4.448;2023-02-15T04:17:24;3.23;86.95
71291;DHT22;59073;51.994;4.448;2023-02-15T04:19:49;3.34;86.48
71291;DHT22;59073;51.994;4.448;2023-02-15T04:22:33;3.43;85.50
71291;DHT22;59073;51.994;4.448;2023-02-15T04:25:17;3.50;85.79
71291;DHT22;59073;51.994;4.448;2023-02-15T04:27:47;3.71;85.34
71291;DHT22;59073;51.994;4.448;2023-02-15T04:30:14;3.88;84.64
71291;DHT22;59073;51.994;4.448;2023-02-15T04:32:40;3.96;83.52
71291;DHT22;59073;51.994;4.448;2023-02-15T04:35:07;4.02;82.53
71291;DHT22;59073;51.994;4.448;2023-02-15T04:37:33;3.81;83.19
71291;DHT22;59073;51.994;4.448;2023-02-15T04:39:59;3.44;84.60
71291;DHT22;59073;51.994;4.448;2023-02-15T04:42:25;3.26;85.18
71291;DHT22;59073;51.994;4.448;2023-02-15T04:44:51;3.21;85.45
71291;DHT22;59073;51.994;4.448;2023-02-15T04:47:17;3.07;85.82
71291;DHT22;59073;51.994;4.448;2023-02-15T04:49:42;3.02;86.20
71291;DHT22;59073;51.994;4.448;2023-02-15T04:52:08;3.16;87.04
71291;DHT22;59073;51.994;4.448;2023-02-15T04:54:33;3.37;86.63
71291;DHT22;59073;51.994;4.448;2023-02-15T04:56:58;3.35;86.41
71291;DHT22;59073;51.994;4.448;2023-02-15T04:59:24;3.50;86.30
71291;DHT22;59073;51.994;4.448;2023-02-15T05:01:49;3.70;85.81
71291;DHT22;59073;51.994;4.448;2023-02-15T05:04:15;3.81;85.45
71291;DHT22;59073;51.994;4.448;2023-02-15T05:06:40;3.74;85.00
71291;DHT22;59073;51.994;4.448;2023-02-15T05:09:06;3.72;85.14
71291;DHT22;59073;51.994;4.448;2023-02-15T05:11:31;3.54;85.22
71291;DHT22;59073;51.994;4.448;2023-02-15T05:13:57;3.47;85.47
71291;DHT22;59073;51.994;4.448;2023-02-15T05:16:23;3.45;85.59
71291;DHT22;59073;51.994;4.448;2023-02-15T05:18:48;3.57;85.86
71291;DHT22;59073;51.994;4.448;2023-02-15T05:21:14;3.65;85.89
71291;DHT22;59073;51.994;4.448;2023-02-15T05:23:41;3.79;85.54
71291;DHT22;59073;51.994;4.448;2023-02-15T05:26:11;3.89;84.91
71291;DHT22;59073;51.994;4.448;2023-02-15T05:28:55;4.15;84.74
71291;DHT22;59073;51.994;4.448;2023-02-15T05:31:21;4.17;83.52
71291;DHT22;59073;51.994;4.448;2023-02-15T05:33:46;4.09;82.69
71291;DHT22;59073;51.994;4.448;2023-02-15T05:36:13;4.05;83.03
71291;DHT22;59073;51.994;4.448;2023-02-15T05:38:39;4.03;82.85
71291;DHT22;59073;51.994;4.448;2023-02-15T05:41:06;3.88;82.82
71291;DHT22;59073;51.994;4.448;2023-02-15T05:43:32;3.81;82.52
71291;DHT22;59073;51.994;4.448;2023-02-15T05:45:58;3.88;82.66
71291;DHT22;59073;51.994;4.448;2023-02-15T05:48:26;3.75;82.74
71291;DHT22;59073;51.994;4.448;2023-02-15T05:51:08;3.50;83.18
71291;DHT22;59073;51.994;4.448;2023-02-15T05:53:36;3.38;83.78
71291;DHT22;59073;51.994;4.448;2023-02-15T05:56:07;3.41;83.88
71291;DHT22;59073;51.994;4.448;2023-02-15T05:58:38;3.31;83.44
71291;DHT22;59073;51.994;4.448;2023-02-15T06:01:15;3.07;85.06
71291;DHT22;59073;51.994;4.448;2023-02-15T06:03:43;3.03;86.63
71291;DHT22;59073;51.994;4.448;2023-02-15T06:06:09;3.14;86.78
71291;DHT22;59073;51.994;4.448;2023-02-15T06:08:36;3.12;87.08
71291;DHT22;59073;51.994;4.448;2023-02-15T06:11:02;3.12;86.96
71291;DHT22;59073;51.994;4.448;2023-02-15T06:13:28;3.03;87.35
71291;DHT22;59073;51.994;4.448;2023-02-15T06:15:53;3.10;87.63
71291;DHT22;59073;51.994;4.448;2023-02-15T06:18:19;3.24;87.46
71291;DHT22;59073;51.994;4.448;2023-02-15T06:20:48;3.41;87.45
71291;DHT22;59073;51.994;4.448;2023-02-15T06:23:13;3.57;86.66
71291;DHT22;59073;51.994;4.448;2023-02-15T06:25:40;3.54;85.21
71291;DHT22;59073;51.994;4.448;2023-02-15T06:28:05;3.30;85.39
71291;DHT22;59073;51.994;4.448;2023-02-15T06:30:31;3.14;86.08
71291;DHT22;59073;51.994;4.448;2023-02-15T06:32:56;3.03;86.50
71291;DHT22;59073;51.994;4.448;2023-02-15T06:35:22;3.16;86.53
71291;DHT22;59073;51.994;4.448;2023-02-15T06:37:48;3.20;86.33
71291;DHT22;59073;51.994;4.448;2023-02-15T06:40:14;3.26;85.21
71291;DHT22;59073;51.994;4.448;2023-02-15T06:42:41;3.21;85.44
71291;DHT22;59073;51.994;4.448;2023-02-15T06:45:07;3.13;85.76
71291;DHT22;59073;51.994;4.448;2023-02-15T06:47:33;3.16;86.11
71291;DHT22;59073;51.994;4.448;2023-02-15T06:49:58;3.30;85.93
71291;DHT22;59073;51.994;4.448;2023-02-15T06:52:23;3.51;85.82
71291;DHT22;59073;51.994;4.448;2023-02-15T06:54:49;3.71;85.65
71291;DHT22;59073;51.994;4.448;2023-02-15T06:57:14;3.65;85.14
71291;DHT22;59073;51.994;4.448;2023-02-15T06:59:40;3.74;84.89
71291;DHT22;59073;51.994;4.448;2023-02-15T07:02:05;3.70;84.58
71291;DHT22;59073;51.994;4.448;2023-02-15T07:04:31;3.64;84.65
71291;DHT22;59073;51.994;4.448;2023-02-15T07:06:56;3.47;84.91
71291;DHT22;59073;51.994;4.448;2023-02-15T07:09:22;3.48;85.54
71291;DHT22;59073;51.994;4.448;2023-02-15T07:11:47;3.61;85.35
71291;DHT22;59073;51.994;4.448;2023-02-15T07:14:34;3.81;84.97
71291;DHT22;59073;51.994;4.448;2023-02-15T07:17:00;3.84;85.06
71291;DHT22;59073;51.994;4.448;2023-02-15T07:19:25;3.98;84.54
71291;DHT22;59073;51.994;4.448;2023-02-15T07:21:51;4.02;84.75
71291;DHT22;59073;51.994;4.448;2023-02-15T07:24:16;3.99;85.18
71291;DHT22;59073;51.994;4.448;2023-02-15T07:26:42;3.96;85.50
71291;DHT22;59073;51.994;4.448;2023-02-15T07:29:07;3.95;85.38
71291;DHT22;59073;51.994;4.448;2023-02-15T07:31:33;3.93;85.60
71291;DHT22;59073;51.994;4.448;2023-02-15T07:33:58;3.99;85.41
71291;DHT22;59073;51.994;4.448;2023-02-15T07:36:24;4.12;85.61
71291;DHT22;59073;51.994;4.448;2023-02-15T07:38:49;4.36;85.03
71291;DHT22;59073;51.994;4.448;2023-02-15T07:41:15;4.58;84.06
71291;DHT22;59073;51.994;4.448;2023-02-15T07:43:43;4.60;83.77
71291;DHT22;59073;51.994;4.448;2023-02-15T07:46:11;4.61;83.63
71291;DHT22;59073;51.994;4.448;2023-02-15T07:48:39;4.54;83.92
71291;DHT22;59073;51.994;4.448;2023-02-15T07:51:07;4.80;83.37
71291;DHT22;59073;51.994;4.448;2023-02-15T07:53:33;4.89;83.11
71291;DHT22;59073;51.994;4.448;2023-02-15T07:56:00;5.09;82.77
71291;DHT22;59073;51.994;4.448;2023-02-15T07:58:26;5.22;82.43
71291;DHT22;59073;51.994;4.448;2023-02-15T08:01:12;5.33;82.04
71291;DHT22;59073;51.994;4.448;2023-02-15T08:03:38;5.39;82.20
71291;DHT22;59073;51.994;4.448;2023-02-15T08:06:03;5.40;82.08
71291;DHT22;59073;51.994;4.448;2023-02-15T08:08:29;5.55;82.40
71291;DHT22;59073;51.994;4.448;2023-02-15T08:11:09;5.70;82.12
71291;DHT22;59073;51.994;4.448;2023-02-15T08:14:01;5.84;81.42
71291;DHT22;59073;51.994;4.448;2023-02-15T08:16:39;6.05;81.01
71291;DHT22;59073;51.994;4.448;2023-02-15T08:21:35;6.69;79.12
71291;DHT22;59073;51.994;4.448;2023-02-15T08:24:02;6.73;78.58
71291;DHT22;59073;51.994;4.448;2023-02-15T08:26:29;6.75;78.79
71291;DHT22;59073;51.994;4.448;2023-02-15T08:28:55;6.53;76.11
71291;DHT22;59073;51.994;4.448;2023-02-15T08:31:25;6.38;74.84
71291;DHT22;59073;51.994;4.448;2023-02-15T08:33:55;6.52;76.42
71291;DHT22;59073;51.994;4.448;2023-02-15T08:36:24;6.86;76.78
71291;DHT22;59073;51.994;4.448;2023-02-15T08:38:51;6.85;77.49
71291;DHT22;59073;51.994;4.448;2023-02-15T08:41:17;6.90;78.30
71291;DHT22;59073;51.994;4.448;2023-02-15T08:43:46;7.24;78.59
71291;DHT22;59073;51.994;4.448;2023-02-15T08:46:14;7.18;73.69
71291;DHT22;59073;51.994;4.448;2023-02-15T08:48:40;7.11;75.02
71291;DHT22;59073;51.994;4.448;2023-02-15T08:51:11;7.16;75.86
71291;DHT22;59073;51.994;4.448;2023-02-15T08:53:43;7.45;75.88
71291;DHT22;59073;51.994;4.448;2023-02-15T08:56:10;7.52;75.58
71291;DHT22;59073;51.994;4.448;2023-02-15T08:58:36;7.65;75.67
71291;DHT22;59073;51.994;4.448;2023-02-15T09:01:08;7.75;74.44
71291;DHT22;59073;51.994;4.448;2023-02-15T09:03:34;7.93;74.86
71291;DHT22;59073;51.994;4.448;2023-02-15T09:06:01;8.46;76.87
71291;DHT22;59073;51.994;4.448;2023-02-15T09:08:27;8.47;74.44
71291;DHT22;59073;51.994;4.448;2023-02-15T09:10:53;8.65;75.46
71291;DHT22;59073;51.994;4.448;2023-02-15T09:13:19;8.82;74.26
71291;DHT22;59073;51.994;4.448;2023-02-15T09:15:46;9.01;74.12
71291;DHT22;59073;51.994;4.448;2023-02-15T09:18:11;9.08;74.14
71291;DHT22;59073;51.994;4.448;2023-02-15T09:20:43;9.07;73.95
71291;DHT22;59073;51.994;4.448;2023-02-15T09:23:09;9.18;73.82
71291;DHT22;59073;51.994;4.448;2023-02-15T09:25:34;9.49;73.90
71291;DHT22;59073;51.994;4.448;2023-02-15T09:28:00;9.64;73.93
71291;DHT22;59073;51.994;4.448;2023-02-15T09:30:25;9.74;73.41
71291;DHT22;59073;51.994;4.448;2023-02-15T09:32:51;9.56;73.69
71291;DHT22;59073;51.994;4.448;2023-02-15T09:35:16;9.40;73.97
71291;DHT22;59073;51.994;4.448;2023-02-15T09:37:42;9.43;73.33
71291;DHT22;59073;51.994;4.448;2023-02-15T09:40:07;9.39;73.66
71291;DHT22;59073;51.994;4.448;2023-02-15T09:42:45;9.59;73.66
71291;DHT22;59073;51.994;4.448;2023-02-15T09:45:20;9.61;72.81
71291;DHT22;59073;51.994;4.448;2023-02-15T09:50:56;9.73;72.37
71291;DHT22;59073;51.994;4.448;2023-02-15T09:53:34;9.98;72.70
71291;DHT22;59073;51.994;4.448;2023-02-15T10:10:49;10.39;70.00
71291;DHT22;59073;51.994;4.448;2023-02-15T10:13:31;10.44;69.81
71291;DHT22;59073;51.994;4.448;2023-02-15T10:19:16;10.63;69.50
71291;DHT22;59073;51.994;4.448;2023-02-15T10:21:59;10.53;69.54
71291;DHT22;59073;51.994;4.448;2023-02-15T10:27:08;10.97;69.46
71291;DHT22;59073;51.994;4.448;2023-02-15T10:29:38;11.10;68.21
71291;DHT22;59073;51.994;4.448;2023-02-15T10:32:25;10.93;68.21
71291;DHT22;59073;51.994;4.448;2023-02-15T10:34:57;10.96;67.41
71291;DHT22;59073;51.994;4.448;2023-02-15T10:37:46;11.10;67.94
71291;DHT22;59073;51.994;4.448;2023-02-15T10:43:37;11.21;67.26
71291;DHT22;59073;51.994;4.448;2023-02-15T10:52:06;10.95;67.07
71291;DHT22;59073;51.994;4.448;2023-02-15T10:54:57;11.07;67.37
71291;DHT22;59073;51.994;4.448;2023-02-15T10:57:52;11.07;67.22
71291;DHT22;59073;51.994;4.448;2023-02-15T11:00:36;11.21;67.41
71291;DHT22;59073;51.994;4.448;2023-02-15T11:06:05;11.48;67.39
71291;DHT22;59073;51.994;4.448;2023-02-15T11:08:41;11.69;66.29
71291;DHT22;59073;51.994;4.448;2023-02-15T11:11:15;11.77;65.62
71291;DHT22;59073;51.994;4.448;2023-02-15T11:13:51;11.86;65.23
71291;DHT22;59073;51.994;4.448;2023-02-15T11:19:07;11.98;65.01
71291;DHT22;59073;51.994;4.448;2023-02-15T11:21:43;12.05;65.60
71291;DHT22;59073;51.994;4.448;2023-02-15T11:24:15;11.92;64.77
71291;DHT22;59073;51.994;4.448;2023-02-15T11:26:54;11.93;64.86
71291;DHT22;59073;51.994;4.448;2023-02-15T11:29:28;11.83;65.26
71291;DHT22;59073;51.994;4.448;2023-02-15T11:32:03;11.77;65.53
71291;DHT22;59073;51.994;4.448;2023-02-15T11:34:44;11.95;66.18
71291;DHT22;59073;51.994;4.448;2023-02-15T11:37:19;11.86;65.26
71291;DHT22;59073;51.994;4.448;2023-02-15T11:39:50;11.71;65.44
71291;DHT22;59073;51.994;4.448;2023-02-15T11:42:21;11.51;65.93
71291;DHT22;59073;51.994;4.448;2023-02-15T11:45:14;11.69;66.73
71291;DHT22;59073;51.994;4.448;2023-02-15T11:47:42;11.86;65.22
71291;DHT22;59073;51.994;4.448;2023-02-15T11:50:19;12.06;64.40
71291;DHT22;59073;51.994;4.448;2023-02-15T11:52:49;12.08;64.08
71291;DHT22;59073;51.994;4.448;2023-02-15T11:55:21;12.08;64.59
71291;DHT22;59073;51.994;4.448;2023-02-15T12:00:52;12.19;64.23
71291;DHT22;59073;51.994;4.448;2023-02-15T12:06:25;12.60;64.20
71291;DHT22;59073;51.994;4.448;2023-02-15T12:12:28;12.91;63.56
71291;DHT22;59073;51.994;4.448;2023-02-15T12:15:02;13.05;63.85
71291;DHT22;59073;51.994;4.448;2023-02-15T12:17:31;13.10;63.11
71291;DHT22;59073;51.994;4.448;2023-02-15T12:20:02;13.18;62.39
71291;DHT22;59073;51.994;4.448;2023-02-15T12:22:32;13.26;62.13
71291;DHT22;59073;51.994;4.448;2023-02-15T12:25:19;13.34;61.69
71291;DHT22;59073;51.994;4.448;2023-02-15T12:27:47;13.55;62.17
71291;DHT22;59073;51.994;4.448;2023-02-15T12:30:27;13.59;61.58
71291;DHT22;59073;51.994;4.448;2023-02-15T12:33:13;13.66;61.48
71291;DHT22;59073;51.994;4.448;2023-02-15T12:35:43;13.67;60.91
71291;DHT22;59073;51.994;4.448;2023-02-15T12:40:35;13.43;61.70
71291;DHT22;59073;51.994;4.448;2023-02-15T12:43:01;13.46;62.53
71291;DHT22;59073;51.994;4.448;2023-02-15T12:45:36;13.41;62.19
71291;DHT22;59073;51.994;4.448;2023-02-15T12:48:15;13.59;61.79
71291;DHT22;59073;51.994;4.448;2023-02-15T12:50:43;13.63;61.15
71291;DHT22;59073;51.994;4.448;2023-02-15T12:53:30;13.67;61.59
71291;DHT22;59073;51.994;4.448;2023-02-15T12:56:02;13.58;61.78
71291;DHT22;59073;51.994;4.448;2023-02-15T12:58:36;13.46;62.56
71291;DHT22;59073;51.994;4.448;2023-02-15T13:03:35;13.05;62.64
71291;DHT22;59073;51.994;4.448;2023-02-15T13:06:03;13.21;62.12
71291;DHT22;59073;51.994;4.448;2023-02-15T13:09:05;13.28;61.76
71291;DHT22;59073;51.994;4.448;2023-02-15T13:11:31;13.25;61.88
71291;DHT22;59073;51.994;4.448;2023-02-15T13:14:03;13.23;62.44
71291;DHT22;59073;51.994;4.448;2023-02-15T13:16:34;13.23;62.36
71291;DHT22;59073;51.994;4.448;2023-02-15T13:19:08;13.11;62.38
71291;DHT22;59073;51.994;4.448;2023-02-15T13:21:40;12.84;62.69
71291;DHT22;59073;51.994;4.448;2023-02-15T13:26:43;13.04;63.27
71291;DHT22;59073;51.994;4.448;2023-02-15T13:29:18;13.08;63.59
71291;DHT22;59073;51.994;4.448;2023-02-15T13:31:46;13.18;63.53
71291;DHT22;59073;51.994;4.448;2023-02-15T13:34:20;13.31;63.23
71291;DHT22;59073;51.994;4.448;2023-02-15T13:37:25;13.22;62.76
71291;DHT22;59073;51.994;4.448;2023-02-15T13:42:49;13.48;62.58
71291;DHT22;59073;51.994;4.448;2023-02-15T13:51:21;13.39;62.39
71291;DHT22;59073;51.994;4.448;2023-02-15T13:59:35;13.23;62.80
71291;DHT22;59073;51.994;4.448;2023-02-15T14:09:53;13.18;62.73
71291;DHT22;59073;51.994;4.448;2023-02-15T14:15:21;13.14;62.51
71291;DHT22;59073;51.994;4.448;2023-02-15T14:18:23;13.10;62.93
71291;DHT22;59073;51.994;4.448;2023-02-15T14:26:23;13.14;62.20
71291;DHT22;59073;51.994;4.448;2023-02-15T14:29:15;13.04;62.01
71291;DHT22;59073;51.994;4.448;2023-02-15T14:31:49;12.90;62.44
71291;DHT22;59073;51.994;4.448;2023-02-15T14:36:57;12.98;62.26
71291;DHT22;59073;51.994;4.448;2023-02-15T14:39:36;12.92;62.83
71291;DHT22;59073;51.994;4.448;2023-02-15T14:45:56;12.87;63.39
71291;DHT22;59073;51.994;4.448;2023-02-15T14:48:30;12.95;63.52
71291;DHT22;59073;51.994;4.448;2023-02-15T14:50:56;13.00;63.71
71291;DHT22;59073;51.994;4.448;2023-02-15T14:53:36;12.98;64.01
71291;DHT22;59073;51.994;4.448;2023-02-15T14:56:22;12.92;64.21
71291;DHT22;59073;51.994;4.448;2023-02-15T15:01:26;12.97;63.57
71291;DHT22;59073;51.994;4.448;2023-02-15T15:03:55;13.01;64.12
71291;DHT22;59073;51.994;4.448;2023-02-15T15:06:32;12.98;64.42
71291;DHT22;59073;51.994;4.448;2023-02-15T15:09:19;12.98;64.82
71291;DHT22;59073;51.994;4.448;2023-02-15T15:11:51;12.92;64.75
71291;DHT22;59073;51.994;4.448;2023-02-15T15:17:00;12.67;64.47
71291;DHT22;59073;51.994;4.448;2023-02-15T15:22:24;12.44;66.02
71291;DHT22;59073;51.994;4.448;2023-02-15T15:24:58;12.36;65.90
71291;DHT22;59073;51.994;4.448;2023-02-15T15:41:42;12.20;67.03
71291;DHT22;59073;51.994;4.448;2023-02-15T15:49:31;11.89;67.43
71291;DHT22;59073;51.994;4.448;2023-02-15T15:52:18;11.78;67.19
71291;DHT22;59073;51.994;4.448;2023-02-15T15:54:50;11.69;67.55
71291;DHT22;59073;51.994;4.448;2023-02-15T15:57:38;11.64;67.47
71291;DHT22;59073;51.994;4.448;2023-02-15T16:00:27;11.55;67.48
71291;DHT22;59073;51.994;4.448;2023-02-15T16:02:55;11.42;67.77
71291;DHT22;59073;51.994;4.448;2023-02-15T16:05:21;11.41;67.92
71291;DHT22;59073;51.994;4.448;2023-02-15T16:07:47;11.28;68.11
71291;DHT22;59073;51.994;4.448;2023-02-15T16:12:48;11.28;68.43
71291;DHT22;59073;51.994;4.448;2023-02-15T16:15:19;11.20;68.63
71291;DHT22;59073;51.994;4.448;2023-02-15T16:17:48;11.20;68.74
71291;DHT22;59073;51.994;4.448;2023-02-15T16:20:17;11.16;68.88
71291;DHT22;59073;51.994;4.448;2023-02-15T16:22:46;11.03;69.25
71291;DHT22;59073;51.994;4.448;2023-02-15T16:27:50;11.09;69.41
71291;DHT22;59073;51.994;4.448;2023-02-15T16:30:32;11.07;69.47
71291;DHT22;59073;51.994;4.448;2023-02-15T16:35:52;10.93;69.92
71291;DHT22;59073;51.994;4.448;2023-02-15T16:38:24;10.92;70.21
71291;DHT22;59073;51.994;4.448;2023-02-15T16:40:55;10.90;70.25
71291;DHT22;59073;51.994;4.448;2023-02-15T16:43:30;10.86;70.40
71291;DHT22;59073;51.994;4.448;2023-02-15T16:46:05;10.83;70.54
71291;DHT22;59073;51.994;4.448;2023-02-15T16:48:33;10.82;70.59
71291;DHT22;59073;51.994;4.448;2023-02-15T16:51:00;10.72;70.74
71291;DHT22;59073;51.994;4.448;2023-02-15T16:53:27;10.63;71.11
71291;DHT22;59073;51.994;4.448;2023-02-15T16:55:57;10.59;71.15
71291;DHT22;59073;51.994;4.448;2023-02-15T16:58:36;10.52;71.19
71291;DHT22;59073;51.994;4.448;2023-02-15T17:01:07;10.50;71.07
71291;DHT22;59073;51.994;4.448;2023-02-15T17:03:35;10.42;70.89
71291;DHT22;59073;51.994;4.448;2023-02-15T17:06:02;10.44;70.70
71291;DHT22;59073;51.994;4.448;2023-02-15T17:13:26;10.49;69.70
71291;DHT22;59073;51.994;4.448;2023-02-15T17:18:26;10.38;69.44
71291;DHT22;59073;51.994;4.448;2023-02-15T17:20:55;10.41;69.32
71291;DHT22;59073;51.994;4.448;2023-02-15T17:26:17;10.44;68.90
71291;DHT22;59073;51.994;4.448;2023-02-15T17:28:50;10.31;69.08
71291;DHT22;59073;51.994;4.448;2023-02-15T17:31:18;10.22;69.41
71291;DHT22;59073;51.994;4.448;2023-02-15T17:33:46;10.14;69.53
71291;DHT22;59073;51.994;4.448;2023-02-15T17:36:20;10.08;69.90
71291;DHT22;59073;51.994;4.448;2023-02-15T17:41:24;10.01;70.01
71291;DHT22;59073;51.994;4.448;2023-02-15T17:43:50;10.01;70.07
71291;DHT22;59073;51.994;4.448;2023-02-15T17:46:16;9.97;70.09
71291;DHT22;59073;51.994;4.448;2023-02-15T17:48:46;9.94;70.23
71291;DHT22;59073;51.994;4.448;2023-02-15T17:51:14;9.90;70.25
71291;DHT22;59073;51.994;4.448;2023-02-15T17:53:41;9.97;70.35
71291;DHT22;59073;51.994;4.448;2023-02-15T17:56:26;9.98;70.31
71291;DHT22;59073;51.994;4.448;2023-02-15T17:58:51;10.01;69.98
71291;DHT22;59073;51.994;4.448;2023-02-15T18:01:20;10.05;69.75
71291;DHT22;59073;51.994;4.448;2023-02-15T18:04:09;10.02;69.64
71291;DHT22;59073;51.994;4.448;2023-02-15T18:06:54;9.94;70.00
71291;DHT22;59073;51.994;4.448;2023-02-15T18:09:38;9.91;70.10
71291;DHT22;59073;51.994;4.448;2023-02-15T18:12:28;9.79;70.30
71291;DHT22;59073;51.994;4.448;2023-02-15T18:14:55;9.66;70.87
71291;DHT22;59073;51.994;4.448;2023-02-15T18:17:32;9.61;71.15
71291;DHT22;59073;51.994;4.448;2023-02-15T18:19:59;9.57;71.33
71291;DHT22;59073;51.994;4.448;2023-02-15T18:22:28;9.54;71.30
71291;DHT22;59073;51.994;4.448;2023-02-15T18:24:53;9.56;71.39
71291;DHT22;59073;51.994;4.448;2023-02-15T18:27:19;9.57;71.29
71291;DHT22;59073;51.994;4.448;2023-02-15T18:29:45;9.59;71.39
71291;DHT22;59073;51.994;4.448;2023-02-15T18:32:21;9.61;71.23
71291;DHT22;59073;51.994;4.448;2023-02-15T18:34:49;9.59;71.28
71291;DHT22;59073;51.994;4.448;2023-02-15T18:37:19;9.63;71.18
71291;DHT22;59073;51.994;4.448;2023-02-15T18:39:51;9.69;71.01
71291;DHT22;59073;51.994;4.448;2023-02-15T18:42:26;9.70;70.82
71291;DHT22;59073;51.994;4.448;2023-02-15T18:44:57;9.71;70.60
71291;DHT22;59073;51.994;4.448;2023-02-15T18:47:23;9.71;70.46
71291;DHT22;59073;51.994;4.448;2023-02-15T18:49:49;9.64;70.40
71291;DHT22;59073;51.994;4.448;2023-02-15T18:52:16;9.51;70.70
71291;DHT22;59073;51.994;4.448;2023-02-15T18:54:43;9.43;70.82